Time;durP1;ratioP1;P1;durP2;ratioP2;P2;SDS_P1;SDS_P2;PMS_P1;PMS_P2;Temp;Humidity;BMP_temperature;BMP_pressure;BME280_temperature;BME280_humidity;BME280_pressure;Samples;Min_cycle;Max_cycle;Signal;HPM_P1;HPM_P2
2021/08/04 00:02:13;;;;;;;3.65;1.90;;;;;;;-145.71;100.00;60690.53;5032809;28;20041;-82
2021/08/04 00:04:38;;;;;;;2.13;1.92;;;;;;;-145.71;100.00;60690.53;5032545;28;20087;-83
2021/08/04 00:07:04;;;;;;;1.95;1.52;;;;;;;-145.71;100.00;60690.53;5031341;28;20029;-82
2021/08/04 00:09:29;;;;;;;2.42;2.22;;;;;;;-145.71;100.00;60690.53;5012621;28;20025;-82
2021/08/04 00:11:55;;;;;;;2.25;1.92;;;;;;;-145.71;100.00;60690.53;5030133;28;20088;-82
2021/08/04 00:14:21;;;;;;;1.77;1.67;;;;;;;-145.71;100.00;60690.53;5030126;28;20033;-82
2021/08/04 00:16:47;;;;;;;1.67;1.50;;;;;;;-145.71;100.00;60690.53;5012494;28;20025;-82
2021/08/04 00:19:12;;;;;;;6.18;1.77;;;;;;;-145.71;100.00;60690.53;5029824;28;20527;-83
2021/08/04 00:21:37;;;;;;;1.60;1.50;;;;;;;-145.71;100.00;60690.53;5029801;28;20085;-83
2021/08/04 00:24:03;;;;;;;2.45;1.63;;;;;;;-145.71;100.00;60690.53;5031516;28;20056;-83
2021/08/04 00:26:28;;;;;;;1.70;1.52;;;;;;;-145.71;100.00;60690.53;5035035;28;20060;-84
2021/08/04 00:28:54;;;;;;;1.90;1.77;;;;;;;-145.71;100.00;60690.53;5032638;28;20499;-83
2021/08/04 00:31:20;;;;;;;1.88;1.70;;;;;;;-145.71;100.00;60690.53;5012663;28;20037;-82
2021/08/04 00:33:45;;;;;;;2.92;2.10;;;;;;;-145.71;100.00;60690.53;5029591;28;20465;-82
2021/08/04 00:36:12;;;;;;;2.42;1.80;;;;;;;-145.71;100.00;60690.53;5030280;28;20030;-82
2021/08/04 00:38:37;;;;;;;1.77;1.67;;;;;;;-145.71;100.00;60690.53;5030046;28;20072;-82
2021/08/04 00:41:03;;;;;;;3.92;2.15;;;;;;;-145.71;100.00;60690.53;5012427;28;20131;-82
2021/08/04 00:43:28;;;;;;;1.40;1.30;;;;;;;-145.71;100.00;60690.53;5012230;28;20060;-83
2021/08/04 00:45:54;;;;;;;2.65;1.50;;;;;;;-145.71;100.00;60690.53;5030167;28;20469;-82
2021/08/04 00:48:20;;;;;;;5.28;2.22;;;;;;;-145.71;100.00;60690.53;5029885;28;20033;-83
2021/08/04 00:50:45;;;;;;;2.10;2.00;;;;;;;-145.71;100.00;60690.53;5013222;28;20079;-82
2021/08/04 00:53:25;;;;;;;1.67;1.58;;;;;;;-145.71;100.00;60690.53;5035217;28;20075;-83
2021/08/04 00:55:52;;;;;;;2.38;1.65;;;;;;;-145.71;100.00;60690.53;5035180;28;20396;-82
2021/08/04 00:58:21;;;;;;;1.70;1.55;;;;;;;-145.71;100.00;60690.53;5033721;28;20087;-83
2021/08/04 01:01:02;;;;;;;1.65;1.50;;;;;;;-145.71;100.00;60690.53;5018010;28;20571;-83
2021/08/04 01:03:32;;;;;;;1.73;1.63;;;;;;;-145.71;100.00;60690.53;5036449;28;20493;-82
2021/08/04 01:06:03;;;;;;;3.17;1.60;;;;;;;-145.71;100.00;60690.53;5034779;28;20037;-83
2021/08/04 01:08:37;;;;;;;3.45;2.38;;;;;;;-145.71;100.00;60690.53;5016134;28;20025;-82
2021/08/04 01:11:07;;;;;;;7.40;2.33;;;;;;;-145.71;100.00;60690.53;5035214;28;20468;-83
2021/08/04 01:13:41;;;;;;;2.90;1.58;;;;;;;-145.71;100.00;60690.53;5035118;28;20029;-82
2021/08/04 01:16:11;;;;;;;2.10;1.90;;;;;;;-145.71;100.00;60690.53;5034505;28;20025;-83
2021/08/04 01:18:44;;;;;;;1.88;1.55;;;;;;;-145.71;100.00;60690.53;5034774;28;20029;-83
2021/08/04 01:21:10;;;;;;;2.45;1.50;;;;;;;-145.71;100.00;60690.53;5017072;28;20396;-82
2021/08/04 01:23:53;;;;;;;1.67;1.58;;;;;;;-145.71;100.00;60690.53;5015071;28;20083;-83
2021/08/04 01:26:29;;;;;;;4.95;2.15;;;;;;;-145.71;100.00;60690.53;5033742;28;20037;-82
2021/08/04 01:28:57;;;;;;;2.70;2.15;;;;;;;-145.71;100.00;60690.53;5034834;28;20113;-84
2021/08/04 01:31:25;;;;;;;4.50;1.60;;;;;;;-145.71;100.00;60690.53;5015983;28;20025;-83
2021/08/04 01:33:53;;;;;;;3.80;1.50;;;;;;;-145.71;100.00;60690.53;5015743;28;20549;-82
2021/08/04 01:36:20;;;;;;;3.50;2.00;;;;;;;-145.71;100.00;60690.53;5033348;28;20136;-82
2021/08/04 01:38:47;;;;;;;4.38;1.83;;;;;;;-145.71;100.00;60690.53;5033583;28;20057;-83
2021/08/04 01:41:14;;;;;;;2.33;1.88;;;;;;;-145.71;100.00;60690.53;5034309;28;20068;-83
2021/08/04 01:43:41;;;;;;;4.75;2.08;;;;;;;-145.71;100.00;60690.53;5033348;28;20029;-83
2021/08/04 01:46:08;;;;;;;2.17;1.70;;;;;;;-145.71;100.00;60690.53;5032988;28;20037;-82
2021/08/04 01:48:37;;;;;;;2.90;1.98;;;;;;;-145.71;100.00;60690.53;5032457;28;20112;-83
2021/08/04 01:51:04;;;;;;;3.15;2.28;;;;;;;-145.71;100.00;60690.53;5032763;28;20051;-82
2021/08/04 01:53:32;;;;;;;4.03;2.20;;;;;;;-145.71;100.00;60690.53;5034180;28;20037;-83
2021/08/04 01:55:57;;;;;;;3.97;2.20;;;;;;;-145.71;100.00;60690.53;5035677;28;20044;-83
2021/08/04 01:58:22;;;;;;;3.67;1.70;;;;;;;-145.71;100.00;60690.53;5035386;28;20025;-83
2021/08/04 02:00:48;;;;;;;3.85;1.95;;;;;;;-145.71;100.00;60690.53;5034531;28;20384;-83
2021/08/04 02:03:14;;;;;;;3.88;1.98;;;;;;;-145.71;100.00;60690.53;5033151;28;20540;-83
2021/08/04 02:05:39;;;;;;;3.00;1.73;;;;;;;-145.71;100.00;60690.53;5032931;28;20029;-82
2021/08/04 02:08:27;;;;;;;4.13;1.90;;;;;;;-145.71;100.00;60690.53;5014490;28;20108;-83
2021/08/04 02:10:56;;;;;;;3.47;1.95;;;;;;;-145.71;100.00;60690.53;5032224;28;20078;-82
2021/08/04 02:13:43;;;;;;;4.15;1.98;;;;;;;-145.71;100.00;60690.53;5032029;28;20126;-82
2021/08/04 02:16:33;;;;;;;5.97;2.20;;;;;;;-145.71;100.00;60690.53;5032163;28;20674;-82
2021/08/04 02:19:29;;;;;;;2.30;2.00;;;;;;;-145.71;100.00;60690.53;5031408;28;20038;-82
2021/08/04 02:22:03;;;;;;;4.15;2.10;;;;;;;-145.71;100.00;60690.53;5031619;28;20030;-82
2021/08/04 02:24:32;;;;;;;2.22;2.00;;;;;;;-145.71;100.00;60690.53;5016653;28;20095;-83
2021/08/04 02:27:00;;;;;;;2.17;1.90;;;;;;;-145.71;100.00;60690.53;5035229;28;20022;-83
2021/08/04 02:29:30;;;;;;;2.47;1.90;;;;;;;-145.71;100.00;60690.53;5034400;28;20044;-83
2021/08/04 02:31:56;;;;;;;6.00;2.10;;;;;;;-145.71;100.00;60690.53;5033600;28;20108;-83
2021/08/04 02:34:22;;;;;;;2.10;1.90;;;;;;;-145.71;100.00;60690.53;5033104;28;20140;-82
2021/08/04 02:36:48;;;;;;;1.90;1.67;;;;;;;-145.71;100.00;60690.53;5032374;28;20029;-82
2021/08/04 02:39:14;;;;;;;2.42;2.13;;;;;;;-145.71;100.00;60690.53;5031961;28;20072;-83
2021/08/04 02:41:39;;;;;;;3.70;2.33;;;;;;;-145.71;100.00;60690.53;5013651;28;20025;-82
2021/08/04 02:44:05;;;;;;;4.07;2.03;;;;;;;-145.71;100.00;60690.53;5013368;28;20087;-82
2021/08/04 02:46:31;;;;;;;2.22;2.03;;;;;;;-145.71;100.00;60690.53;5031377;28;20033;-82
2021/08/04 02:48:58;;;;;;;3.72;2.20;;;;;;;-145.71;100.00;60690.53;5031216;28;20392;-82
2021/08/04 02:51:24;;;;;;;2.97;2.30;;;;;;;-145.71;100.00;60690.53;5031010;28;20039;-82
2021/08/04 02:53:56;;;;;;;3.72;3.05;;;;;;;-145.71;100.00;60690.53;5032377;28;20043;-83
2021/08/04 02:56:23;;;;;;;4.38;2.88;;;;;;;-145.71;100.00;60690.53;5034691;28;20037;-83
2021/08/04 02:58:48;;;;;;;3.88;2.38;;;;;;;-145.71;100.00;60690.53;5015452;28;20029;-83
2021/08/04 03:01:13;;;;;;;4.30;2.72;;;;;;;-145.71;100.00;60690.53;5032625;28;20043;-83
2021/08/04 03:03:39;;;;;;;3.58;2.65;;;;;;;-145.71;100.00;60690.53;5031783;28;20753;-83
2021/08/04 03:06:04;;;;;;;6.07;3.33;;;;;;;-145.71;100.00;60690.53;5030936;28;20029;-82
2021/08/04 03:08:29;;;;;;;4.90;3.28;;;;;;;-145.71;100.00;60690.53;5031253;28;20063;-82
2021/08/04 03:10:55;;;;;;;5.00;2.50;;;;;;;-145.71;100.00;60690.53;5030861;28;20033;-82
2021/08/04 03:13:20;;;;;;;5.57;3.50;;;;;;;-145.71;100.00;60690.53;5030341;28;20037;-82
2021/08/04 03:15:45;;;;;;;4.72;3.20;;;;;;;-145.71;100.00;60690.53;5030142;28;20721;-82
2021/08/04 03:18:11;;;;;;;4.85;3.13;;;;;;;-145.71;100.00;60690.53;5030613;28;20033;-83
2021/08/04 03:20:36;;;;;;;4.68;2.38;;;;;;;-145.71;100.00;60690.53;5030675;28;20033;-83
2021/08/04 03:23:02;;;;;;;4.28;3.25;;;;;;;-145.71;100.00;60690.53;5032018;28;20520;-83
2021/08/04 03:25:27;;;;;;;3.92;2.75;;;;;;;-145.71;100.00;60690.53;5034258;28;20021;-83
2021/08/04 03:27:52;;;;;;;5.25;3.22;;;;;;;-145.71;100.00;60690.53;5033475;28;20036;-83
2021/08/04 03:30:18;;;;;;;4.63;3.00;;;;;;;-145.71;100.00;60690.53;5033339;28;20030;-82
2021/08/04 03:32:43;;;;;;;7.25;4.60;;;;;;;-145.71;100.00;60690.53;5030461;28;20104;-83
2021/08/04 03:35:10;;;;;;;4.70;3.53;;;;;;;-145.71;100.00;60690.53;5030598;28;20030;-82
2021/08/04 03:37:35;;;;;;;5.05;3.95;;;;;;;-145.71;100.00;60690.53;5012380;28;20057;-82
2021/08/04 03:40:00;;;;;;;4.00;3.33;;;;;;;-145.71;100.00;60690.53;5030327;28;20053;-82
2021/08/04 03:42:26;;;;;;;3.22;2.58;;;;;;;-145.71;100.00;60690.53;5031355;28;20033;-82
2021/08/04 03:44:51;;;;;;;5.20;2.67;;;;;;;-145.71;100.00;60690.53;5013628;28;20025;-82
2021/08/04 03:47:16;;;;;;;4.82;2.80;;;;;;;-145.71;100.00;60690.53;5030489;28;20030;-83
2021/08/04 03:49:42;;;;;;;4.25;3.17;;;;;;;-145.71;100.00;60690.53;5030056;28;20029;-82
2021/08/04 03:52:07;;;;;;;5.15;2.78;;;;;;;-145.71;100.00;60690.53;5031255;28;20085;-83
2021/08/04 03:54:33;;;;;;;4.38;2.63;;;;;;;-145.71;100.00;60690.53;5016114;28;20464;-82
2021/08/04 03:56:58;;;;;;;4.93;3.40;;;;;;;-145.71;100.00;60690.53;5019980;28;20038;-81
2021/08/04 03:59:23;;;;;;;3.92;2.63;;;;;;;-145.71;100.00;60690.53;5010099;28;20068;-82
2021/08/04 04:01:49;;;;;;;4.03;2.70;;;;;;;-145.71;100.00;60690.53;5009676;28;20112;-82
2021/08/04 04:04:14;;;;;;;4.20;3.17;;;;;;;-145.71;100.00;60690.53;5006861;28;20079;-81
2021/08/04 04:06:39;;;;;;;3.80;3.03;;;;;;;-145.71;100.00;60690.53;5009134;28;20104;-82
2021/08/04 04:09:05;;;;;;;2.45;2.25;;;;;;;-145.71;100.00;60690.53;5021811;28;20816;-82
2021/08/04 04:11:30;;;;;;;3.75;2.53;;;;;;;-145.71;100.00;60690.53;5012148;28;20062;-83
2021/08/04 04:13:55;;;;;;;4.95;2.42;;;;;;;-145.71;100.00;60690.53;4991164;28;20068;-83
2021/08/04 04:16:22;;;;;;;3.22;2.30;;;;;;;-145.71;100.00;60690.53;4994788;28;20494;-83
2021/08/04 04:18:48;;;;;;;4.13;2.60;;;;;;;-145.71;100.00;60690.53;5012344;28;20061;-83
2021/08/04 04:21:13;;;;;;;4.85;2.90;;;;;;;-145.71;100.00;60690.53;5010814;28;20042;-82
2021/08/04 04:23:39;;;;;;;4.82;3.10;;;;;;;-145.71;100.00;60690.53;5011092;28;20660;-82
2021/08/04 04:26:04;;;;;;;6.28;3.38;;;;;;;-145.71;100.00;60690.53;5021297;28;20083;-83
2021/08/04 04:28:30;;;;;;;6.72;3.55;;;;;;;-145.71;100.00;60690.53;5012771;28;20038;-83
2021/08/04 04:30:55;;;;;;;4.00;2.67;;;;;;;-145.71;100.00;60690.53;5024570;28;20033;-83
2021/08/04 04:33:20;;;;;;;2.97;2.40;;;;;;;-145.71;100.00;60690.53;5016141;28;20038;-82
2021/08/04 04:35:46;;;;;;;3.28;2.90;;;;;;;-145.71;100.00;60690.53;5015103;28;20064;-82
2021/08/04 04:38:11;;;;;;;5.45;3.20;;;;;;;-145.71;100.00;60690.53;5032300;28;20818;-83
2021/08/04 04:40:37;;;;;;;4.60;3.40;;;;;;;-145.71;100.00;60690.53;5022105;28;20034;-82
2021/08/04 04:43:02;;;;;;;6.43;3.13;;;;;;;-145.71;100.00;60690.53;4996098;28;20029;-83
2021/08/04 04:45:27;;;;;;;4.97;3.45;;;;;;;-145.71;100.00;60690.53;5031271;28;20033;-83
2021/08/04 04:47:53;;;;;;;4.55;3.42;;;;;;;-145.71;100.00;60690.53;4996849;28;20034;-83
2021/08/04 04:50:18;;;;;;;4.00;3.50;;;;;;;-145.71;100.00;60690.53;5002506;28;20026;-83
2021/08/04 04:52:44;;;;;;;3.03;2.60;;;;;;;-145.71;100.00;60690.53;5011227;28;20063;-83
2021/08/04 04:55:10;;;;;;;6.20;4.07;;;;;;;-145.71;100.00;60690.53;5018839;28;20025;-83
2021/08/04 04:57:36;;;;;;;5.38;3.08;;;;;;;-145.71;100.00;60690.53;5013068;28;20053;-83
2021/08/04 05:00:02;;;;;;;4.07;2.45;;;;;;;-145.71;100.00;60690.53;5009116;28;20088;-82
2021/08/04 05:02:27;;;;;;;4.40;3.65;;;;;;;-145.71;100.00;60690.53;5019260;28;20079;-83
2021/08/04 05:04:53;;;;;;;2.60;2.40;;;;;;;-145.71;100.00;60690.53;5031428;28;20025;-82
2021/08/04 05:07:18;;;;;;;3.20;2.92;;;;;;;-145.71;100.00;60690.53;5015802;28;20053;-82
2021/08/04 05:09:43;;;;;;;4.18;3.25;;;;;;;-145.71;100.00;60690.53;5029784;28;20022;-82
2021/08/04 05:12:08;;;;;;;6.43;3.40;;;;;;;-145.71;100.00;60690.53;5009644;28;20032;-84
2021/08/04 05:14:34;;;;;;;5.60;3.35;;;;;;;-145.71;100.00;60690.53;4997714;28;20069;-83
2021/08/04 05:16:59;;;;;;;5.88;3.22;;;;;;;-145.71;100.00;60690.53;5008298;28;20388;-83
2021/08/04 05:19:24;;;;;;;7.47;3.35;;;;;;;-145.71;100.00;60690.53;5016394;28;20030;-82
2021/08/04 05:21:50;;;;;;;6.53;4.00;;;;;;;-145.71;100.00;60690.53;5010892;28;20028;-83
2021/08/04 05:24:15;;;;;;;8.45;3.53;;;;;;;-145.71;100.00;60690.53;5012585;28;20104;-82
2021/08/04 05:26:40;;;;;;;6.18;3.20;;;;;;;-145.71;100.00;60690.53;5020871;28;20025;-82
2021/08/04 05:29:07;;;;;;;5.60;4.05;;;;;;;-145.71;100.00;60690.53;5017211;28;20146;-83
2021/08/04 05:31:32;;;;;;;6.50;3.58;;;;;;;-145.71;100.00;60690.53;5029923;28;20089;-82
2021/08/04 05:33:57;;;;;;;7.20;3.97;;;;;;;-145.71;100.00;60690.53;5026037;28;20703;-82
2021/08/04 05:36:23;;;;;;;5.43;3.47;;;;;;;-145.71;100.00;60690.53;5017859;28;20533;-83
2021/08/04 05:38:51;;;;;;;7.22;3.45;;;;;;;-145.71;100.00;60690.53;5017637;28;20025;-83
2021/08/04 05:41:16;;;;;;;6.60;3.58;;;;;;;-145.71;100.00;60690.53;5010491;28;20170;-82
2021/08/04 05:43:42;;;;;;;11.48;4.10;;;;;;;-145.71;100.00;60690.53;5030565;28;20842;-83
2021/08/04 05:46:07;;;;;;;6.13;3.42;;;;;;;-145.71;100.00;60690.53;5020069;28;20040;-83
2021/08/04 05:48:32;;;;;;;7.88;4.22;;;;;;;-145.71;100.00;60690.53;5006485;28;20038;-83
2021/08/04 05:50:57;;;;;;;9.93;3.83;;;;;;;-145.71;100.00;60690.53;5013424;28;20049;-83
2021/08/04 05:53:23;;;;;;;7.18;4.53;;;;;;;-145.71;100.00;60690.53;5026924;28;20733;-83
2021/08/04 05:55:48;;;;;;;9.43;4.88;;;;;;;-145.71;100.00;60690.53;5010009;28;20868;-82
2021/08/04 05:58:13;;;;;;;4.60;4.15;;;;;;;-145.71;100.00;60690.53;4999221;28;20024;-82
2021/08/04 06:00:39;;;;;;;8.40;5.35;;;;;;;-145.71;100.00;60690.53;5021991;28;20492;-82
2021/08/04 06:03:04;;;;;;;12.38;3.95;;;;;;;-145.71;100.00;60690.53;5029348;28;20029;-83
2021/08/04 06:05:29;;;;;;;8.85;7.78;;;;;;;-145.71;100.00;60690.53;4998926;28;20485;-83
2021/08/04 06:07:54;;;;;;;6.40;5.03;;;;;;;-145.71;100.00;60690.53;5029129;28;20029;-83
2021/08/04 06:10:20;;;;;;;7.80;3.75;;;;;;;-145.71;100.00;60690.53;5020488;28;20097;-83
2021/08/04 06:12:45;;;;;;;12.25;4.30;;;;;;;-145.71;100.00;60690.53;5020963;28;20022;-82
2021/08/04 06:15:11;;;;;;;5.07;3.40;;;;;;;-145.71;100.00;60690.53;5025293;28;20033;-83
2021/08/04 06:17:36;;;;;;;9.73;3.00;;;;;;;-145.71;100.00;60690.53;4996685;28;20030;-83
2021/08/04 06:20:03;;;;;;;8.38;3.28;;;;;;;-145.71;100.00;60690.53;5026006;28;20030;-83
2021/08/04 06:22:29;;;;;;;4.50;2.75;;;;;;;-145.71;100.00;60690.53;5018741;28;20045;-83
2021/08/04 06:24:54;;;;;;;12.75;4.00;;;;;;;-145.71;100.00;60690.53;5018478;28;20116;-82
2021/08/04 06:27:19;;;;;;;9.55;4.88;;;;;;;-145.71;100.00;60690.53;4992767;28;20067;-83
2021/08/04 06:29:45;;;;;;;10.95;3.15;;;;;;;-145.71;100.00;60690.53;4995515;28;20022;-83
2021/08/04 06:32:10;;;;;;;7.38;2.60;;;;;;;-145.71;100.00;60690.53;5008368;28;20048;-83
2021/08/04 06:34:35;;;;;;;6.90;2.70;;;;;;;-145.71;100.00;60690.53;5023497;28;20033;-83
2021/08/04 06:37:01;;;;;;;7.60;2.40;;;;;;;-145.71;100.00;60690.53;5032556;28;20029;-82
2021/08/04 06:39:26;;;;;;;9.02;2.95;;;;;;;-145.71;100.00;60690.53;4997604;28;20030;-83
2021/08/04 06:41:51;;;;;;;4.95;2.75;;;;;;;-145.71;100.00;60690.53;5014617;28;20033;-83
2021/08/04 06:44:17;;;;;;;9.00;3.50;;;;;;;-145.71;100.00;60690.53;5024642;28;20026;-83
2021/08/04 06:46:42;;;;;;;6.63;2.80;;;;;;;-145.71;100.00;60690.53;5021784;28;20424;-83
2021/08/04 06:49:07;;;;;;;8.32;2.40;;;;;;;-145.71;100.00;60690.53;5017440;28;20100;-83
2021/08/04 06:51:34;;;;;;;6.75;2.60;;;;;;;-145.71;100.00;60690.53;5022930;28;20445;-83
2021/08/04 06:54:00;;;;;;;7.30;3.15;;;;;;;-145.71;100.00;60690.53;5014861;28;20033;-83
2021/08/04 06:56:28;;;;;;;5.97;2.53;;;;;;;-145.71;100.00;60690.53;5004001;28;20490;-82
2021/08/04 06:58:53;;;;;;;7.53;2.40;;;;;;;-145.71;100.00;60690.53;5021136;28;20025;-82
2021/08/04 07:01:18;;;;;;;7.57;2.30;;;;;;;-145.71;100.00;60690.53;4995795;28;20083;-82
2021/08/04 07:03:44;;;;;;;6.95;2.40;;;;;;;-145.71;100.00;60690.53;5033111;28;20029;-83
2021/08/04 07:06:12;;;;;;;8.18;2.70;;;;;;;-145.71;100.00;60690.53;5032380;28;20044;-82
2021/08/04 07:08:39;;;;;;;4.97;1.85;;;;;;;-145.71;100.00;60690.53;5002282;28;20030;-82
2021/08/04 07:11:05;;;;;;;4.18;2.25;;;;;;;-145.71;100.00;60690.53;5011326;28;20037;-83
2021/08/04 07:13:31;;;;;;;4.28;1.90;;;;;;;-145.71;100.00;60690.53;4991736;28;20025;-83
2021/08/04 07:15:56;;;;;;;4.80;2.03;;;;;;;-145.71;100.00;60690.53;5013014;28;20032;-83
2021/08/04 07:18:22;;;;;;;2.97;2.00;;;;;;;-145.71;100.00;60690.53;5021400;28;20133;-82
2021/08/04 07:20:47;;;;;;;4.60;1.70;;;;;;;-145.71;100.00;60690.53;5002342;28;20033;-82
2021/08/04 07:23:15;;;;;;;6.82;2.00;;;;;;;-145.71;100.00;60690.53;5014942;28;20057;-83
2021/08/04 07:25:41;;;;;;;7.43;2.08;;;;;;;-145.71;100.00;60690.53;5007254;28;20080;-83
2021/08/04 07:28:07;;;;;;;10.80;2.17;;;;;;;-145.71;100.00;60690.53;5014021;28;20021;-82
2021/08/04 07:30:32;;;;;;;4.25;1.67;;;;;;;-145.71;100.00;60690.53;5022590;28;20038;-83
2021/08/04 07:32:57;;;;;;;5.68;1.45;;;;;;;-145.71;100.00;60690.53;5024242;28;20107;-83
2021/08/04 07:35:23;;;;;;;7.05;1.60;;;;;;;-145.71;100.00;60690.53;4996650;28;20022;-83
2021/08/04 07:37:48;;;;;;;3.45;1.73;;;;;;;-145.71;100.00;60690.53;5026796;28;20101;-83
2021/08/04 07:40:16;;;;;;;4.13;1.38;;;;;;;-145.71;100.00;60690.53;5018478;28;20026;-82
2021/08/04 07:42:41;;;;;;;5.38;2.10;;;;;;;-145.71;100.00;60690.53;5018292;28;20022;-82
2021/08/04 07:45:07;;;;;;;3.22;1.45;;;;;;;-145.71;100.00;60690.53;5022502;28;20035;-83
2021/08/04 07:47:33;;;;;;;3.97;1.45;;;;;;;-145.71;100.00;60690.53;4995142;28;20040;-82
2021/08/04 07:49:58;;;;;;;4.72;1.88;;;;;;;-145.71;100.00;60690.53;5023997;28;20404;-83
2021/08/04 07:52:23;;;;;;;3.60;1.35;;;;;;;-145.71;100.00;60690.53;5008696;28;20460;-83
2021/08/04 07:54:48;;;;;;;1.73;1.48;;;;;;;-145.71;100.00;60690.53;5022713;28;20018;-83
2021/08/04 07:57:14;;;;;;;2.92;1.60;;;;;;;-145.71;100.00;60690.53;5019503;28;20030;-83
2021/08/04 07:59:39;;;;;;;5.13;1.50;;;;;;;-145.71;100.00;60690.53;4994994;28;20033;-83
2021/08/04 08:02:04;;;;;;;3.40;1.25;;;;;;;-145.71;100.00;60690.53;5028724;28;20152;-83
2021/08/04 08:04:31;;;;;;;1.45;1.27;;;;;;;-145.71;100.00;60690.53;5017430;28;20034;-82
2021/08/04 08:06:58;;;;;;;1.67;1.55;;;;;;;-145.71;100.00;60690.53;5026293;28;20033;-83
2021/08/04 08:09:24;;;;;;;3.25;1.35;;;;;;;-145.71;100.00;60690.53;5017126;28;20037;-82
2021/08/04 08:11:55;;;;;;;3.05;1.50;;;;;;;-145.71;100.00;60690.53;5011027;28;20018;-82
2021/08/04 08:14:21;;;;;;;3.92;1.92;;;;;;;-145.71;100.00;60690.53;5019244;28;20028;-82
2021/08/04 08:16:46;;;;;;;3.75;1.42;;;;;;;-145.71;100.00;60690.53;5003000;28;20485;-81
2021/08/04 08:19:12;;;;;;;1.67;1.05;;;;;;;-145.71;100.00;60690.53;4994648;28;20899;-82
2021/08/04 08:21:37;;;;;;;2.28;1.63;;;;;;;-145.71;100.00;60690.53;5030248;28;20042;-82
2021/08/04 08:24:02;;;;;;;1.60;1.35;;;;;;;-145.71;100.00;60690.53;5008703;28;20131;-82
2021/08/04 08:26:28;;;;;;;2.45;1.67;;;;;;;-145.71;100.00;60690.53;5023551;28;20139;-84
2021/08/04 08:28:53;;;;;;;5.25;1.50;;;;;;;-145.71;100.00;60690.53;5035936;28;20021;-83
2021/08/04 08:31:19;;;;;;;3.67;1.30;;;;;;;-145.71;100.00;60690.53;4999607;28;20085;-82
2021/08/04 08:33:44;;;;;;;1.65;1.55;;;;;;;-145.71;100.00;60690.53;5030623;28;20033;-82
2021/08/04 08:36:10;;;;;;;4.25;1.42;;;;;;;-145.71;100.00;60690.53;5018775;28;20029;-82
2021/08/04 08:38:36;;;;;;;3.67;1.60;;;;;;;-145.71;100.00;60690.53;5013985;28;20482;-83
2021/08/04 08:41:02;;;;;;;2.17;1.60;;;;;;;-145.71;100.00;60690.53;5006547;28;20404;-82
2021/08/04 08:43:27;;;;;;;3.10;1.50;;;;;;;-145.71;100.00;60690.53;5031080;28;20037;-82
2021/08/04 08:45:53;;;;;;;2.50;1.75;;;;;;;-145.71;100.00;60690.53;5015203;28;20021;-82
2021/08/04 08:48:19;;;;;;;3.65;1.98;;;;;;;-145.71;100.00;60690.53;5006490;28;20018;-82
2021/08/04 08:50:47;;;;;;;9.05;2.10;;;;;;;-145.71;100.00;60690.53;5021831;28;20512;-82
2021/08/04 08:53:13;;;;;;;4.18;1.95;;;;;;;-145.71;100.00;60690.53;5028303;28;20033;-83
2021/08/04 08:55:39;;;;;;;4.25;1.80;;;;;;;-145.71;100.00;60690.53;5019878;28;20032;-83
2021/08/04 08:58:05;;;;;;;3.90;1.80;;;;;;;-145.71;100.00;60690.53;5015042;28;20033;-82
2021/08/04 09:00:30;;;;;;;4.35;1.90;;;;;;;-145.71;100.00;60690.53;5032513;28;20411;-83
2021/08/04 09:02:56;;;;;;;3.63;1.58;;;;;;;-145.71;100.00;60690.53;5020077;28;20492;-82
2021/08/04 09:05:21;;;;;;;3.95;1.67;;;;;;;-145.71;100.00;60690.53;5012107;28;20034;-82
2021/08/04 09:07:47;;;;;;;3.42;1.60;;;;;;;-145.71;100.00;60690.53;4994878;28;20069;-82
2021/08/04 09:10:20;;;;;;;2.97;1.63;;;;;;;-145.71;100.00;60690.53;5018842;28;20520;-83
2021/08/04 09:12:48;;;;;;;4.72;1.77;;;;;;;-145.71;100.00;60690.53;5013071;28;20040;-83
2021/08/04 09:15:27;;;;;;;4.15;2.42;;;;;;;-145.71;100.00;60690.53;5016944;28;20057;-82
2021/08/04 09:18:19;;;;;;;2.20;1.80;;;;;;;-145.71;100.00;60690.53;4998025;28;20053;-82
2021/08/04 09:20:52;;;;;;;;;;;;;;;-145.71;100.00;60690.53;5002107;28;20084;-82
2021/08/04 09:23:20;;;;;;;2.60;1.80;;;;;;;-145.71;100.00;60690.53;5025963;28;19921;-83
2021/08/04 09:26:02;;;;;;;1.48;1.33;;;;;;;-145.71;100.00;60690.53;5032818;28;20053;-82
2021/08/04 09:28:28;;;;;;;3.10;1.52;;;;;;;-145.71;100.00;60690.53;5013835;28;20034;-83
2021/08/04 09:31:03;;;;;;;2.33;1.52;;;;;;;-145.71;100.00;60690.53;5025562;28;20032;-83
2021/08/04 09:33:38;;;;;;;6.68;1.50;;;;;;;-145.71;100.00;60690.53;5014571;28;20053;-83
2021/08/04 09:36:04;;;;;;;3.25;1.58;;;;;;;-145.71;100.00;60690.53;5000606;28;20021;-83
2021/08/04 09:38:29;;;;;;;5.63;1.80;;;;;;;-145.71;100.00;60690.53;5035283;28;20033;-83
2021/08/04 09:41:16;;;;;;;2.45;1.52;;;;;;;-145.71;100.00;60690.53;5003931;28;20029;-83
2021/08/04 09:43:48;;;;;;;2.45;1.55;;;;;;;-145.71;100.00;60690.53;5029370;28;20029;-83
2021/08/04 09:46:24;;;;;;;3.05;1.40;;;;;;;-145.71;100.00;60690.53;5000990;28;20591;-83
2021/08/04 09:48:52;;;;;;;3.40;1.45;;;;;;;-145.71;100.00;60690.53;5013613;28;20055;-82
2021/08/04 09:51:19;;;;;;;2.15;1.65;;;;;;;-145.71;100.00;60690.53;5014848;28;20033;-82
2021/08/04 09:53:54;;;;;;;3.10;2.10;;;;;;;-145.71;100.00;60690.53;5010505;28;20025;-83
2021/08/04 09:56:20;;;;;;;1.85;1.45;;;;;;;-145.71;100.00;60690.53;5010831;28;20412;-83
2021/08/04 09:58:53;;;;;;;4.07;1.33;;;;;;;-145.71;100.00;60690.53;5021667;28;20110;-83
2021/08/04 10:01:37;;;;;;;2.72;1.67;;;;;;;-145.71;100.00;60690.53;5014182;28;20317;-82
2021/08/04 10:04:08;;;;;;;1.40;1.30;;;;;;;-145.71;100.00;60690.53;4985064;28;20033;-83
2021/08/04 10:06:36;;;;;;;2.53;1.50;;;;;;;-145.71;100.00;60690.53;5006567;28;20033;-83
2021/08/04 10:09:02;;;;;;;3.63;1.40;;;;;;;-145.71;100.00;60690.53;5008695;28;20049;-83
2021/08/04 10:11:28;;;;;;;2.40;1.60;;;;;;;-145.71;100.00;60690.53;5015972;28;20044;-83
2021/08/04 10:13:56;;;;;;;2.97;1.30;;;;;;;-145.71;100.00;60690.53;4997296;28;20022;-83
2021/08/04 10:16:23;;;;;;;1.75;1.40;;;;;;;-145.71;100.00;60690.53;5022745;28;20033;-82
2021/08/04 10:18:50;;;;;;;2.80;1.50;;;;;;;-145.71;100.00;60690.53;5010568;28;20036;-83
2021/08/04 10:21:16;;;;;;;2.95;1.90;;;;;;;-145.71;100.00;60690.53;5009580;28;20026;-82
2021/08/04 10:23:47;;;;;;;2.78;1.65;;;;;;;-145.71;100.00;60690.53;5024809;28;20050;-82
2021/08/04 10:26:14;;;;;;;2.67;1.90;;;;;;;-145.71;100.00;60690.53;5011524;28;20033;-82
2021/08/04 10:28:41;;;;;;;1.45;1.35;;;;;;;-145.71;100.00;60690.53;5019516;28;20104;-83
2021/08/04 10:31:09;;;;;;;4.40;1.63;;;;;;;-145.71;100.00;60690.53;4998527;28;20092;-83
2021/08/04 10:33:35;;;;;;;4.63;1.80;;;;;;;-145.71;100.00;60690.53;5026216;28;20116;-82
2021/08/04 10:36:07;;;;;;;1.83;1.40;;;;;;;-145.71;100.00;60690.53;4998802;28;20113;-83
2021/08/04 10:38:35;;;;;;;3.58;1.50;;;;;;;-145.71;100.00;60690.53;5014718;28;20430;-82
2021/08/04 10:41:15;;;;;;;4.03;1.80;;;;;;;-145.71;100.00;60690.53;4999366;28;20057;-82
2021/08/04 10:44:01;;;;;;;2.17;1.27;;;;;;;-145.71;100.00;60690.53;5007449;28;20063;-82
2021/08/04 10:46:30;;;;;;;3.97;1.75;;;;;;;-145.71;100.00;60690.53;4992026;28;20041;-83
2021/08/04 10:49:12;;;;;;;3.83;1.50;;;;;;;-145.71;100.00;60690.53;5021753;28;20104;-82
2021/08/04 10:51:43;;;;;;;2.08;1.63;;;;;;;-145.71;100.00;60690.53;5010066;28;20033;-82
2021/08/04 10:54:14;;;;;;;3.55;1.52;;;;;;;-145.71;100.00;60690.53;5015173;28;20107;-83
2021/08/04 10:56:42;;;;;;;2.92;1.70;;;;;;;-145.71;100.00;60690.53;5018902;28;20040;-82
2021/08/04 10:59:07;;;;;;;4.60;1.77;;;;;;;-145.71;100.00;60690.53;5022232;28;20370;-82
2021/08/04 11:01:33;;;;;;;2.00;1.43;;;;;;;-145.71;100.00;60690.53;5011291;28;20034;-82
2021/08/04 11:03:58;;;;;;;2.75;1.42;;;;;;;-145.71;100.00;60690.53;5011189;28;20053;-83
2021/08/04 11:06:23;;;;;;;3.38;1.83;;;;;;;-145.71;100.00;60690.53;5003941;28;20029;-83
2021/08/04 11:09:11;;;;;;;2.38;1.67;;;;;;;-145.71;100.00;60690.53;5021595;28;20113;-83
2021/08/04 11:11:57;;;;;;;1.73;1.55;;;;;;;-145.71;100.00;60690.53;4995783;28;20115;-83